• Join FlightAware (Why Join?)
  • Login
  • US Flag 
02:57AM EDT


 

Airport Tracker/Info


-or-


 

Live Flight TrackerFlight Track Log ✈ FLG3757 ✈ 20-Jan-2014 ✈ KBGM - KDTW

Flight Track Log - Related Links

Times and Time Zones

All times are in EST time to prevent confusion due to time zone crossing. See the FLG3757 flight status page for this flight to view local times or setup timezone preferences in your user account.

Time Position Orientation Groundspeed Altitude Reporting Facility
EST Latitude Longitude Course Direction KTS MPH feet Rate Location/Type
06:32AM 42.1789 -76.0008 285° West 180 207 3,300  Level New York Center
06:33AM 42.1925 -76.0692 285° West 185 213 5,600 2,220 Climbing New York Center
06:35AM 42.2403 -76.2314 292° West 220 253 10,500 1,980 Climbing Cleveland Center
06:36AM 42.2703 -76.3286 293° West 273 314 12,000 1,680 Climbing Cleveland Center
06:37AM 42.3011 -76.4317 292° West 282 325 14,000 1,800 Climbing Cleveland Center
06:38AM 42.3308 -76.5325 292° West 287 330 15,700 1,620 Climbing Cleveland Center
06:39AM 42.3611 -76.6361 292° West 296 341 17,300 1,740 Climbing Cleveland Center
06:40AM 42.3925 -76.7403 292° West 299 344 19,300 1,620 Climbing Cleveland Center
06:41AM 42.4219 -76.8428 291° West 294 338 20,600 1,200 Climbing Cleveland Center
06:42AM 42.4519 -76.9486 291° West 301 346 21,800 1,140 Climbing Cleveland Center
06:43AM 42.4831 -77.0544 292° West 302 348 23,000 1,140 Climbing Cleveland Center
06:44AM 42.5139 -77.1611 291° West 304 350 24,200 1,080 Climbing Cleveland Center
06:45AM 42.5261 -77.2711 279° West 294 338 25,200 840 Climbing Cleveland Center
06:46AM 42.5336 -77.3831 275° West 298 343 26,000 360 Climbing Cleveland Center
06:47AM 42.5425 -77.5211 275° West 314 361 26,000  Level Cleveland Center
06:49AM 42.5508 -77.6469 275° West 332 382 26,000  Level Cleveland Center
06:50AM 42.5594 -77.7717 275° West 333 383 26,000  Level Cleveland Center
06:51AM 42.5656 -77.8847 274° West 332 382 26,000  Level Cleveland Center
06:52AM 42.5731 -78.0097 275° West 332 382 26,000  Level Cleveland Center
06:53AM 42.5803 -78.1353 275° West 334 384 26,000  Level Cleveland Center
06:54AM 42.5869 -78.2600 274° West 333 383 26,000  Level Cleveland Center
06:55AM 42.5947 -78.3861 275° West 334 384 26,000  Level Cleveland Center
06:56AM 42.6028 -78.5367 274° West 336 387 26,000  Level Cleveland Center
06:57AM 42.6092 -78.6644 274° West 339 390 26,000  Level Cleveland Center
06:58AM 42.6169 -78.7894 275° West 335 386 26,000  Level Cleveland Center
06:59AM 42.6242 -78.9142 275° West 335 386 26,000  Level Cleveland Center
07:00AM 42.6292 -79.0392 273° West 334 384 26,000  Level Cleveland Center
07:01AM 42.6356 -79.1653 274° West 336 387 26,000  Level Cleveland Center
07:02AM 42.6422 -79.2894 274° West 333 383 26,000  Level Cleveland Center
07:03AM 42.6478 -79.4169 273° West 338 389 26,000  Level Cleveland Center
07:04AM 42.6539 -79.5436 274° West 337 388 26,000  Level Cleveland Center
07:05AM 42.6606 -79.6711 274° West 339 390 26,000  Level Cleveland Center
07:06AM 42.6636 -79.7997 272° West 341 392 26,000  Level Cleveland Center
07:07AM 42.6558 -79.9558 266° West 347 399 26,000  Level Cleveland Center
07:08AM 42.6497 -80.0683 266° West 349 402 26,000  Level Cleveland Center
07:09AM 42.6422 -80.2211 266° West 345 397 26,000  Level Cleveland Center
07:10AM 42.6367 -80.3539 267° West 348 400 26,000  Level Cleveland Center
07:11AM 42.6311 -80.4872 267° West 350 403 26,000  Level Cleveland Center
07:12AM 42.6236 -80.6200 266° West 349 402 26,000  Level Cleveland Center
07:13AM 42.6167 -80.7556 266° West 356 410 26,000 -120 Level Cleveland Center
07:14AM 42.6100 -80.8883 266° West 353 406 25,800 -720 Descending Cleveland Center
07:15AM 42.6025 -81.0225 266° West 354 407 24,600 -1,200 Descending Cleveland Center
07:16AM 42.5953 -81.1519 266° West 345 397 23,400 -1,200 Descending Cleveland Center
07:17AM 42.5881 -81.2764 266° West 332 382 22,200 -720 Descending Cleveland Center
07:18AM 42.5803 -81.4050 265° West 337 388 22,000 -120 Descending Cleveland Center
07:19AM 42.5728 -81.5306 265° West 334 384 22,000  Level Cleveland Center
07:20AM 42.5658 -81.6628 266° West 344 396 22,000  Level Cleveland Center
07:21AM 42.5569 -81.7928 265° West 342 394 22,000 -600 Level Cleveland Center
07:22AM 42.5503 -81.9172 266° West 334 384 20,800 -1,500 Descending Cleveland Center
07:23AM 42.5414 -82.0347 264° West 318 366 19,000 -1,860 Descending Cleveland Center
07:24AM 42.5339 -82.1536 265° West 317 365 17,000 -2,220 Descending Cleveland Center
07:25AM 42.5294 -82.2353 266° West 317 365 15,700 -2,220 Descending Cleveland Center
07:25AM 42.5253 -82.2944 265° West 315 362 14,800 -1,680 Descending Cleveland Center
07:25AM 42.5236 -82.3194 265° West 315 362 14,500 -1,620 Descending Cleveland Center
07:26AM 42.5175 -82.4125 265° West 314 361 13,200 -1,620 Descending Cleveland Center
07:26AM 42.5156 -82.4372 264° West 316 364 12,900 -1,080 Descending Cleveland Center
07:27AM 42.5100 -82.5286 265° West 313 360 12,100 -840 Descending Cleveland Center
07:27AM 42.5033 -82.5517 249° West 308 354 12,100 -120 Level Cleveland Center
07:28AM 42.4758 -82.6350 246° West 308 354 12,000  Descending Cleveland Center
07:28AM 42.4686 -82.6575 246° West 309 356 12,100  Climbing Cleveland Center
07:29AM 42.4397 -82.7364 244° Southwest 303 349 12,000 -120 Descending Cleveland Center
07:29AM 42.4364 -82.7550 256° West 254 292 12,000  Level Cleveland Center
07:30AM 42.4294 -82.8161 261° West 222 255 12,000 60 Level Cleveland Center
07:30AM 42.4244 -82.8353 251° West 202 232 12,100 60 Climbing Cleveland Center
07:31AM 42.4092 -82.8878 249° West 206 237 12,100  Level Cleveland Center
07:31AM 42.4031 -82.8975 230° Southwest 210 242 12,100 -120 Level Cleveland Center
07:32AM 42.3778 -82.9547 239° Southwest 211 243 12,000  Descending Cleveland Center
07:33AM 42.3403 -83.0358 238° Southwest 208 239 12,100  Climbing Cleveland Center
07:33AM 42.3414 -83.0347 36° Northeast 209 241 12,000  Descending Cleveland Center
07:34AM 42.3103 -83.1025 238° Southwest 204 235 12,100  Climbing Cleveland Center
07:34AM 42.3111 -83.0992 71° East 204 235 12,000  Descending Cleveland Center
07:35AM 42.2781 -83.1656 236° Southwest 210 242 12,100  Climbing Cleveland Center
07:35AM 42.2794 -83.1631 53° Northeast 204 235 12,000 -600 Descending Cleveland Center
07:36AM 42.2228 -83.2058 209° Southwest 225 259 11,500 -540 Descending Cleveland Center
07:36AM 42.2250 -83.2053 10° North 224 258 11,500 -1,200 Level Cleveland Center
07:37AM 42.1692 -83.2492 210° Southwest 228 262 10,300 -1,320 Descending Cleveland Center
07:37AM 42.1656 -83.2492 180° South 227 261 10,200 -1,440 Descending Cleveland Center
07:38AM 42.1114 -83.2911 210° Southwest 223 257 8,800 -1,440 Descending Cleveland Center
07:39AM 42.1069 -83.2942 207° Southwest 219 252 8,700 -1,680 Descending Cleveland Center
07:40AM 42.0581 -83.3356 212° Southwest 224 258 7,100 -1,680 Descending Cleveland Center
07:40AM 42.0531 -83.3400 213° Southwest 226 260 7,000 -1,500 Descending Cleveland Center
07:41AM 42.0294 -83.3958 240° Southwest 213 245 5,600 -1,500 Descending Cleveland Center
07:41AM 42.0294 -83.4014 270° West 187 215 5,500 -1,320 Descending Cleveland Center
07:41AM 42.0553 -83.4444 309° West 174 200 4,400 -1,140 Descending Cleveland Center
07:42AM 42.0506 -83.4444 180° South 176 203 4,400 -1,200 Level Cleveland Center
07:43AM 42.0972 -83.4253 17° North 176 203 3,100 -1,440 Descending Cleveland Center
07:43AM 42.1100 -83.4156 29° Northeast 151 174 2,700 -900 Descending Cleveland Center
07:44AM 42.1347 -83.3975 28° Northeast 168 193 2,200 -780 Descending Cleveland Center
07:44AM 42.1436 -83.3892 35° Northeast 138 159 2,000 -900 Descending Cleveland Center
07:45AM 42.1736 -83.3692 26° Northeast 146 168 1,300 -840 Descending Cleveland Center
07:45AM 42.1769 -83.3658 37° Northeast 131 151 1,200 1,500 Descending Cleveland Center
07:46AM 42.1908 -83.3200 68° East 192 221 2,900 1,380 Climbing Cleveland Center
07:47AM 42.1792 -83.2519 103° East 201 231 4,000 1,080 Climbing Cleveland Center
07:47AM 42.1758 -83.2417 114° Southeast 232 267 4,000  Level Cleveland Center
07:48AM 42.1628 -83.1683 103° East 224 258 4,000  Level Cleveland Center
07:48AM 42.1547 -83.1628 153° Southeast 234 269 4,000  Level Cleveland Center
07:49AM 42.0992 -83.1617 179° South 233 268 4,000  Level Cleveland Center
07:49AM 42.0917 -83.1653 200° South 228 262 4,000  Level Cleveland Center
07:50AM 42.0533 -83.2275 230° Southwest 220 253 4,000  Level Cleveland Center
07:50AM 42.0578 -83.2203 50° Northeast 221 254 4,000  Level Cleveland Center
07:51AM 42.0217 -83.2878 234° Southwest 214 246 4,000  Level Cleveland Center
07:51AM 42.0228 -83.2856 56° Northeast 216 249 4,000 -900 Level Cleveland Center
07:52AM 42.0092 -83.3594 256° West 207 238 3,000 -540 Descending Cleveland Center
07:53AM 42.0139 -83.4383 275° West 173 199 3,000  Level Cleveland Center
07:53AM 42.0156 -83.4397 328° Northwest 195 224 3,000  Level Cleveland Center
07:54AM 42.0594 -83.4442 356° North 179 206 3,000  Level Cleveland Center
07:54AM 42.0639 -83.4428 13° North 177 204 3,000 -120 Level Cleveland Center
07:55AM 42.0992 -83.4225 23° Northeast 170 196 2,900 -120 Descending Cleveland Center
07:55AM 42.1042 -83.4197 22° Northeast 177 204 2,900 -840 Level Cleveland Center
07:56AM 42.1369 -83.3939 30° Northeast 135 155 2,100 -900 Descending Cleveland Center
07:56AM 42.1408 -83.3922 18° North 164 189 2,000 -780 Descending Cleveland Center
07:57AM 42.1658 -83.3728 30° Northeast 132 152 1,400 -720 Descending Cleveland Center
07:57AM 42.1719 -83.3689 25° Northeast 144 166 1,300 -480 Descending Cleveland Center
07:58AM 42.2086 -83.3431 28° Northeast 138 159 800 -540 Descending Cleveland Center